sensor_id;sensor_type;location;lat;lon;timestamp;temperature;humidity
29775;DHT22;16676;51.202;6.774;2024-03-02T00:02:40;18.40;64.30
29775;DHT22;16676;51.202;6.774;2024-03-02T00:06:42;18.40;65.40
29775;DHT22;16676;51.202;6.774;2024-03-02T00:10:45;18.40;65.10
29775;DHT22;16676;51.202;6.774;2024-03-02T00:14:47;18.40;65.20
29775;DHT22;16676;51.202;6.774;2024-03-02T00:18:49;18.30;64.20
29775;DHT22;16676;51.202;6.774;2024-03-02T00:22:51;18.30;64.50
29775;DHT22;16676;51.202;6.774;2024-03-02T00:26:54;18.30;64.90
29775;DHT22;16676;51.202;6.774;2024-03-02T00:30:58;18.30;64.10
29775;DHT22;16676;51.202;6.774;2024-03-02T00:35:00;18.30;64.80
29775;DHT22;16676;51.202;6.774;2024-03-02T00:39:02;18.30;63.70
29775;DHT22;16676;51.202;6.774;2024-03-02T00:43:05;18.20;64.40
29775;DHT22;16676;51.202;6.774;2024-03-02T00:47:07;18.30;64.90
29775;DHT22;16676;51.202;6.774;2024-03-02T00:51:09;18.20;64.20
29775;DHT22;16676;51.202;6.774;2024-03-02T00:55:12;18.20;64.30
29775;DHT22;16676;51.202;6.774;2024-03-02T00:59:15;18.20;66.00
29775;DHT22;16676;51.202;6.774;2024-03-02T01:03:17;18.20;64.50
29775;DHT22;16676;51.202;6.774;2024-03-02T01:07:19;18.20;65.10
29775;DHT22;16676;51.202;6.774;2024-03-02T01:11:21;18.20;65.40
29775;DHT22;16676;51.202;6.774;2024-03-02T01:15:25;18.20;65.00
29775;DHT22;16676;51.202;6.774;2024-03-02T01:19:27;18.20;64.70
29775;DHT22;16676;51.202;6.774;2024-03-02T01:23:28;18.10;64.80
29775;DHT22;16676;51.202;6.774;2024-03-02T01:27:30;18.10;63.70
29775;DHT22;16676;51.202;6.774;2024-03-02T01:31:34;18.10;64.70
29775;DHT22;16676;51.202;6.774;2024-03-02T01:35:36;18.10;65.60
29775;DHT22;16676;51.202;6.774;2024-03-02T01:39:38;18.10;64.70
29775;DHT22;16676;51.202;6.774;2024-03-02T01:43:40;18.10;64.90
29775;DHT22;16676;51.202;6.774;2024-03-02T01:47:43;18.10;64.60
29775;DHT22;16676;51.202;6.774;2024-03-02T01:51:45;18.10;65.20
29775;DHT22;16676;51.202;6.774;2024-03-02T01:55:47;18.10;64.10
29775;DHT22;16676;51.202;6.774;2024-03-02T01:59:49;18.10;63.80
29775;DHT22;16676;51.202;6.774;2024-03-02T02:03:53;18.00;64.40
29775;DHT22;16676;51.202;6.774;2024-03-02T02:07:55;18.00;65.60
29775;DHT22;16676;51.202;6.774;2024-03-02T02:11:59;18.10;63.80
29775;DHT22;16676;51.202;6.774;2024-03-02T02:16:05;18.00;65.00
29775;DHT22;16676;51.202;6.774;2024-03-02T02:20:09;18.00;64.50
29775;DHT22;16676;51.202;6.774;2024-03-02T02:24:12;18.00;63.60
29775;DHT22;16676;51.202;6.774;2024-03-02T02:28:14;18.00;64.10
29775;DHT22;16676;51.202;6.774;2024-03-02T02:32:16;18.00;64.20
29775;DHT22;16676;51.202;6.774;2024-03-02T02:36:18;18.00;64.10
29775;DHT22;16676;51.202;6.774;2024-03-02T02:40:21;18.00;63.50
29775;DHT22;16676;51.202;6.774;2024-03-02T02:44:23;18.00;63.90
29775;DHT22;16676;51.202;6.774;2024-03-02T02:48:25;17.90;65.30
29775;DHT22;16676;51.202;6.774;2024-03-02T02:52:31;17.90;65.10
29775;DHT22;16676;51.202;6.774;2024-03-02T02:56:36;17.90;64.00
29775;DHT22;16676;51.202;6.774;2024-03-02T03:00:37;18.00;64.50
29775;DHT22;16676;51.202;6.774;2024-03-02T03:04:40;18.00;65.00
29775;DHT22;16676;51.202;6.774;2024-03-02T03:08:42;17.90;64.20
29775;DHT22;16676;51.202;6.774;2024-03-02T03:12:45;17.90;65.60
29775;DHT22;16676;51.202;6.774;2024-03-02T03:16:48;17.90;64.60
29775;DHT22;16676;51.202;6.774;2024-03-02T03:20:50;17.90;64.50
29775;DHT22;16676;51.202;6.774;2024-03-02T03:24:53;17.90;65.00
29775;DHT22;16676;51.202;6.774;2024-03-02T03:28:56;17.90;64.60
29775;DHT22;16676;51.202;6.774;2024-03-02T03:32:58;17.90;64.80
29775;DHT22;16676;51.202;6.774;2024-03-02T03:37:00;17.90;64.80
29775;DHT22;16676;51.202;6.774;2024-03-02T03:41:03;17.90;64.90
29775;DHT22;16676;51.202;6.774;2024-03-02T03:45:07;17.90;65.20
29775;DHT22;16676;51.202;6.774;2024-03-02T03:49:09;17.90;65.00
29775;DHT22;16676;51.202;6.774;2024-03-02T03:53:11;17.90;64.90
29775;DHT22;16676;51.202;6.774;2024-03-02T03:57:15;17.90;65.20
29775;DHT22;16676;51.202;6.774;2024-03-02T04:01:18;17.80;64.80
29775;DHT22;16676;51.202;6.774;2024-03-02T04:05:20;17.90;65.10
29775;DHT22;16676;51.202;6.774;2024-03-02T04:09:22;17.90;65.00
29775;DHT22;16676;51.202;6.774;2024-03-02T04:13:24;17.90;65.40
29775;DHT22;16676;51.202;6.774;2024-03-02T04:17:27;17.80;65.20
29775;DHT22;16676;51.202;6.774;2024-03-02T04:21:29;17.90;64.90
29775;DHT22;16676;51.202;6.774;2024-03-02T04:25:31;17.90;65.50
29775;DHT22;16676;51.202;6.774;2024-03-02T04:29:33;17.80;64.80
29775;DHT22;16676;51.202;6.774;2024-03-02T04:33:36;17.90;65.50
29775;DHT22;16676;51.202;6.774;2024-03-02T04:37:38;17.90;64.80
29775;DHT22;16676;51.202;6.774;2024-03-02T04:41:40;17.90;64.90
29775;DHT22;16676;51.202;6.774;2024-03-02T04:45:42;17.90;64.90
29775;DHT22;16676;51.202;6.774;2024-03-02T04:49:45;18.10;65.00
29775;DHT22;16676;51.202;6.774;2024-03-02T04:53:47;18.30;65.10
29775;DHT22;16676;51.202;6.774;2024-03-02T04:57:49;18.50;64.80
29775;DHT22;16676;51.202;6.774;2024-03-02T05:01:51;18.60;64.50
29775;DHT22;16676;51.202;6.774;2024-03-02T05:05:54;18.80;64.30
29775;DHT22;16676;51.202;6.774;2024-03-02T05:09:57;18.90;63.90
29775;DHT22;16676;51.202;6.774;2024-03-02T05:13:59;19.00;64.00
29775;DHT22;16676;51.202;6.774;2024-03-02T05:18:01;19.00;63.50
29775;DHT22;16676;51.202;6.774;2024-03-02T05:22:07;19.10;63.30
29775;DHT22;16676;51.202;6.774;2024-03-02T05:26:09;19.10;63.20
29775;DHT22;16676;51.202;6.774;2024-03-02T05:30:13;19.10;63.20
29775;DHT22;16676;51.202;6.774;2024-03-02T05:34:15;19.20;63.40
29775;DHT22;16676;51.202;6.774;2024-03-02T05:38:18;19.20;63.30
29775;DHT22;16676;51.202;6.774;2024-03-02T05:42:20;19.20;63.50
29775;DHT22;16676;51.202;6.774;2024-03-02T05:46:22;19.20;63.40
29775;DHT22;16676;51.202;6.774;2024-03-02T05:50:24;19.20;63.50
29775;DHT22;16676;51.202;6.774;2024-03-02T05:54:27;19.20;64.20
29775;DHT22;16676;51.202;6.774;2024-03-02T05:58:29;19.20;64.20
29775;DHT22;16676;51.202;6.774;2024-03-02T06:02:43;19.20;64.00
29775;DHT22;16676;51.202;6.774;2024-03-02T06:06:46;19.10;64.00
29775;DHT22;16676;51.202;6.774;2024-03-02T06:10:51;19.20;63.50
29775;DHT22;16676;51.202;6.774;2024-03-02T06:14:53;19.10;64.10
29775;DHT22;16676;51.202;6.774;2024-03-02T06:18:55;19.20;64.30
29775;DHT22;16676;51.202;6.774;2024-03-02T06:22:58;19.10;64.30
29775;DHT22;16676;51.202;6.774;2024-03-02T06:27:01;19.10;64.00
29775;DHT22;16676;51.202;6.774;2024-03-02T06:31:04;19.10;64.30
29775;DHT22;16676;51.202;6.774;2024-03-02T06:35:06;19.10;64.50
29775;DHT22;16676;51.202;6.774;2024-03-02T06:39:10;19.00;64.00
29775;DHT22;16676;51.202;6.774;2024-03-02T06:43:14;19.00;63.70
29775;DHT22;16676;51.202;6.774;2024-03-02T06:47:16;19.00;64.40
29775;DHT22;16676;51.202;6.774;2024-03-02T06:51:18;19.00;64.20
29775;DHT22;16676;51.202;6.774;2024-03-02T06:55:20;19.00;64.30
29775;DHT22;16676;51.202;6.774;2024-03-02T06:59:23;19.00;63.00
29775;DHT22;16676;51.202;6.774;2024-03-02T07:03:25;19.00;63.20
29775;DHT22;16676;51.202;6.774;2024-03-02T07:07:27;19.00;62.60
29775;DHT22;16676;51.202;6.774;2024-03-02T07:11:29;19.00;62.90
29775;DHT22;16676;51.202;6.774;2024-03-02T07:15:33;18.90;62.50
29775;DHT22;16676;51.202;6.774;2024-03-02T07:19:55;18.90;61.60
29775;DHT22;16676;51.202;6.774;2024-03-02T07:23:57;18.80;60.30
29775;DHT22;16676;51.202;6.774;2024-03-02T07:28:00;19.20;59.20
29775;DHT22;16676;51.202;6.774;2024-03-02T07:32:03;19.30;56.90
29775;DHT22;16676;51.202;6.774;2024-03-02T07:36:06;19.70;54.80
29775;DHT22;16676;51.202;6.774;2024-03-02T07:40:10;19.50;55.30
29775;DHT22;16676;51.202;6.774;2024-03-02T07:44:13;19.50;55.00
29775;DHT22;16676;51.202;6.774;2024-03-02T07:48:17;19.40;54.70
29775;DHT22;16676;51.202;6.774;2024-03-02T07:52:19;19.30;55.60
29775;DHT22;16676;51.202;6.774;2024-03-02T07:56:21;19.00;57.00
29775;DHT22;16676;51.202;6.774;2024-03-02T08:00:23;18.80;56.80
29775;DHT22;16676;51.202;6.774;2024-03-02T08:04:27;18.80;57.20
29775;DHT22;16676;51.202;6.774;2024-03-02T08:08:29;18.80;56.50
29775;DHT22;16676;51.202;6.774;2024-03-02T08:12:31;18.90;55.40
29775;DHT22;16676;51.202;6.774;2024-03-02T08:16:33;18.90;55.40
29775;DHT22;16676;51.202;6.774;2024-03-02T08:20:37;18.90;55.90
29775;DHT22;16676;51.202;6.774;2024-03-02T08:24:39;18.80;55.60
29775;DHT22;16676;51.202;6.774;2024-03-02T08:28:42;18.80;54.60
29775;DHT22;16676;51.202;6.774;2024-03-02T08:32:44;18.90;55.20
29775;DHT22;16676;51.202;6.774;2024-03-02T08:36:49;18.90;55.10
29775;DHT22;16676;51.202;6.774;2024-03-02T08:40:52;18.90;55.20
29775;DHT22;16676;51.202;6.774;2024-03-02T08:44:54;18.80;55.20
29775;DHT22;16676;51.202;6.774;2024-03-02T08:48:56;18.80;55.30
29775;DHT22;16676;51.202;6.774;2024-03-02T08:52:59;18.90;55.30
29775;DHT22;16676;51.202;6.774;2024-03-02T08:57:01;18.90;55.20
29775;DHT22;16676;51.202;6.774;2024-03-02T09:01:03;19.00;54.90
29775;DHT22;16676;51.202;6.774;2024-03-02T09:05:08;18.90;55.80
29775;DHT22;16676;51.202;6.774;2024-03-02T09:09:11;18.90;56.10
29775;DHT22;16676;51.202;6.774;2024-03-02T09:13:13;18.90;55.80
29775;DHT22;16676;51.202;6.774;2024-03-02T09:17:15;19.00;56.40
29775;DHT22;16676;51.202;6.774;2024-03-02T09:21:17;19.00;57.10
29775;DHT22;16676;51.202;6.774;2024-03-02T09:25:20;19.10;57.00
29775;DHT22;16676;51.202;6.774;2024-03-02T09:29:22;19.20;56.70
29775;DHT22;16676;51.202;6.774;2024-03-02T09:33:24;19.20;57.00
29775;DHT22;16676;51.202;6.774;2024-03-02T09:37:26;19.30;56.90
29775;DHT22;16676;51.202;6.774;2024-03-02T09:41:31;19.40;57.10
29775;DHT22;16676;51.202;6.774;2024-03-02T09:45:34;19.40;56.60
29775;DHT22;16676;51.202;6.774;2024-03-02T09:49:36;19.40;56.90
29775;DHT22;16676;51.202;6.774;2024-03-02T09:53:38;19.50;57.30
29775;DHT22;16676;51.202;6.774;2024-03-02T09:57:42;19.40;57.00
29775;DHT22;16676;51.202;6.774;2024-03-02T10:01:56;19.40;57.00
29775;DHT22;16676;51.202;6.774;2024-03-02T10:06:20;19.40;57.20
29775;DHT22;16676;51.202;6.774;2024-03-02T10:10:22;19.40;57.20
29775;DHT22;16676;51.202;6.774;2024-03-02T10:14:25;19.50;57.40
29775;DHT22;16676;51.202;6.774;2024-03-02T10:18:27;19.50;57.40
29775;DHT22;16676;51.202;6.774;2024-03-02T10:22:30;19.40;57.20
29775;DHT22;16676;51.202;6.774;2024-03-02T10:26:31;19.40;57.40
29775;DHT22;16676;51.202;6.774;2024-03-02T10:30:35;19.40;57.30
29775;DHT22;16676;51.202;6.774;2024-03-02T10:34:39;19.30;57.40
29775;DHT22;16676;51.202;6.774;2024-03-02T10:38:41;19.40;57.80
29775;DHT22;16676;51.202;6.774;2024-03-02T10:42:44;19.30;57.70
29775;DHT22;16676;51.202;6.774;2024-03-02T10:46:49;19.30;57.90
29775;DHT22;16676;51.202;6.774;2024-03-02T10:50:51;19.30;57.80
29775;DHT22;16676;51.202;6.774;2024-03-02T10:54:53;19.20;57.90
29775;DHT22;16676;51.202;6.774;2024-03-02T10:59:02;19.30;58.10
29775;DHT22;16676;51.202;6.774;2024-03-02T11:03:07;19.20;58.00
29775;DHT22;16676;51.202;6.774;2024-03-02T11:07:10;19.20;57.90
29775;DHT22;16676;51.202;6.774;2024-03-02T11:11:15;19.20;58.00
29775;DHT22;16676;51.202;6.774;2024-03-02T11:15:18;19.20;58.10
29775;DHT22;16676;51.202;6.774;2024-03-02T11:19:22;19.30;58.10
29775;DHT22;16676;51.202;6.774;2024-03-02T11:23:32;19.30;58.20
29775;DHT22;16676;51.202;6.774;2024-03-02T11:28:00;19.30;58.10
29775;DHT22;16676;51.202;6.774;2024-03-02T11:32:03;19.30;58.10
29775;DHT22;16676;51.202;6.774;2024-03-02T11:36:08;19.40;58.10
29775;DHT22;16676;51.202;6.774;2024-03-02T11:40:10;19.40;58.00
29775;DHT22;16676;51.202;6.774;2024-03-02T11:44:12;19.40;58.00
29775;DHT22;16676;51.202;6.774;2024-03-02T11:48:14;19.50;58.10
29775;DHT22;16676;51.202;6.774;2024-03-02T11:52:18;19.50;58.10
29775;DHT22;16676;51.202;6.774;2024-03-02T11:56:20;19.50;58.10
29775;DHT22;16676;51.202;6.774;2024-03-02T12:00:23;19.50;58.00
29775;DHT22;16676;51.202;6.774;2024-03-02T12:04:26;19.50;57.90
29775;DHT22;16676;51.202;6.774;2024-03-02T12:08:29;19.60;57.90
29775;DHT22;16676;51.202;6.774;2024-03-02T12:12:32;19.50;58.00
29775;DHT22;16676;51.202;6.774;2024-03-02T12:16:34;19.50;58.10
29775;DHT22;16676;51.202;6.774;2024-03-02T12:20:38;19.50;58.20
29775;DHT22;16676;51.202;6.774;2024-03-02T12:24:41;19.50;58.30
29775;DHT22;16676;51.202;6.774;2024-03-02T12:28:45;19.50;58.40
29775;DHT22;16676;51.202;6.774;2024-03-02T12:32:49;19.50;58.50
29775;DHT22;16676;51.202;6.774;2024-03-02T12:36:51;19.50;58.40
29775;DHT22;16676;51.202;6.774;2024-03-02T12:40:55;19.50;58.60
29775;DHT22;16676;51.202;6.774;2024-03-02T12:44:57;19.50;58.40
29775;DHT22;16676;51.202;6.774;2024-03-02T12:49:07;19.50;58.50
29775;DHT22;16676;51.202;6.774;2024-03-02T12:53:14;19.50;58.50
29775;DHT22;16676;51.202;6.774;2024-03-02T12:57:18;19.40;58.60
29775;DHT22;16676;51.202;6.774;2024-03-02T13:01:20;19.50;58.50
29775;DHT22;16676;51.202;6.774;2024-03-02T13:05:22;19.50;58.60
29775;DHT22;16676;51.202;6.774;2024-03-02T13:09:26;19.40;58.50
29775;DHT22;16676;51.202;6.774;2024-03-02T13:13:31;19.40;58.50
29775;DHT22;16676;51.202;6.774;2024-03-02T13:17:35;19.40;58.60
29775;DHT22;16676;51.202;6.774;2024-03-02T13:21:37;19.40;58.80
29775;DHT22;16676;51.202;6.774;2024-03-02T13:25:39;19.40;58.50
29775;DHT22;16676;51.202;6.774;2024-03-02T13:29:42;19.30;58.80
29775;DHT22;16676;51.202;6.774;2024-03-02T13:33:44;19.30;59.30
29775;DHT22;16676;51.202;6.774;2024-03-02T13:37:46;19.30;59.10
29775;DHT22;16676;51.202;6.774;2024-03-02T13:41:48;19.30;58.90
29775;DHT22;16676;51.202;6.774;2024-03-02T13:45:54;19.30;58.80
29775;DHT22;16676;51.202;6.774;2024-03-02T13:49:56;19.30;58.80
29775;DHT22;16676;51.202;6.774;2024-03-02T13:53:58;19.30;58.50
29775;DHT22;16676;51.202;6.774;2024-03-02T13:58:00;19.30;58.90
29775;DHT22;16676;51.202;6.774;2024-03-02T14:02:05;19.30;58.80
29775;DHT22;16676;51.202;6.774;2024-03-02T14:06:07;19.30;59.10
29775;DHT22;16676;51.202;6.774;2024-03-02T14:10:09;19.30;59.10
29775;DHT22;16676;51.202;6.774;2024-03-02T14:14:11;19.20;59.40
29775;DHT22;16676;51.202;6.774;2024-03-02T14:18:15;19.20;59.10
29775;DHT22;16676;51.202;6.774;2024-03-02T14:22:17;19.20;59.30
29775;DHT22;16676;51.202;6.774;2024-03-02T14:26:19;19.20;59.20
29775;DHT22;16676;51.202;6.774;2024-03-02T14:30:21;19.20;59.20
29775;DHT22;16676;51.202;6.774;2024-03-02T14:34:24;19.20;60.20
29775;DHT22;16676;51.202;6.774;2024-03-02T14:38:26;19.30;60.00
29775;DHT22;16676;51.202;6.774;2024-03-02T14:42:28;19.40;60.00
29775;DHT22;16676;51.202;6.774;2024-03-02T14:46:32;19.50;59.10
29775;DHT22;16676;51.202;6.774;2024-03-02T14:50:36;19.60;58.90
29775;DHT22;16676;51.202;6.774;2024-03-02T14:54:38;19.70;58.80
29775;DHT22;16676;51.202;6.774;2024-03-02T14:58:40;19.80;58.40
29775;DHT22;16676;51.202;6.774;2024-03-02T15:02:41;19.90;58.40
29775;DHT22;16676;51.202;6.774;2024-03-02T15:06:45;20.00;58.50
29775;DHT22;16676;51.202;6.774;2024-03-02T15:10:47;20.10;58.30
29775;DHT22;16676;51.202;6.774;2024-03-02T15:14:50;20.20;58.30
29775;DHT22;16676;51.202;6.774;2024-03-02T15:18:52;20.20;58.50
29775;DHT22;16676;51.202;6.774;2024-03-02T15:22:55;20.20;58.40
29775;DHT22;16676;51.202;6.774;2024-03-02T15:26:57;20.30;58.50
29775;DHT22;16676;51.202;6.774;2024-03-02T15:30:59;20.20;57.90
29775;DHT22;16676;51.202;6.774;2024-03-02T15:35:00;20.30;58.40
29775;DHT22;16676;51.202;6.774;2024-03-02T15:39:04;20.20;58.70
29775;DHT22;16676;51.202;6.774;2024-03-02T15:43:09;20.20;59.00
29775;DHT22;16676;51.202;6.774;2024-03-02T15:47:11;20.30;58.80
29775;DHT22;16676;51.202;6.774;2024-03-02T15:51:13;20.20;58.90
29775;DHT22;16676;51.202;6.774;2024-03-02T15:55:16;20.30;59.00
29775;DHT22;16676;51.202;6.774;2024-03-02T15:59:18;20.20;60.10
29775;DHT22;16676;51.202;6.774;2024-03-02T16:03:20;20.30;60.10
29775;DHT22;16676;51.202;6.774;2024-03-02T16:07:22;20.20;60.30
29775;DHT22;16676;51.202;6.774;2024-03-02T16:11:25;20.20;61.00
29775;DHT22;16676;51.202;6.774;2024-03-02T16:15:27;20.20;60.40
29775;DHT22;16676;51.202;6.774;2024-03-02T16:19:29;20.20;60.50
29775;DHT22;16676;51.202;6.774;2024-03-02T16:23:31;20.20;59.80
29775;DHT22;16676;51.202;6.774;2024-03-02T16:27:34;20.10;60.50
29775;DHT22;16676;51.202;6.774;2024-03-02T16:31:36;20.10;59.90
29775;DHT22;16676;51.202;6.774;2024-03-02T16:35:38;20.10;60.00
29775;DHT22;16676;51.202;6.774;2024-03-02T16:39:40;20.10;60.50
29775;DHT22;16676;51.202;6.774;2024-03-02T16:43:43;20.10;60.00
29775;DHT22;16676;51.202;6.774;2024-03-02T16:47:46;20.10;60.50
29775;DHT22;16676;51.202;6.774;2024-03-02T16:51:48;20.10;59.90
29775;DHT22;16676;51.202;6.774;2024-03-02T16:55:50;20.10;59.90
29775;DHT22;16676;51.202;6.774;2024-03-02T16:59:54;20.10;60.50
29775;DHT22;16676;51.202;6.774;2024-03-02T17:03:56;20.00;59.70
29775;DHT22;16676;51.202;6.774;2024-03-02T17:07:58;20.00;59.60
29775;DHT22;16676;51.202;6.774;2024-03-02T17:11:59;20.00;59.70
29775;DHT22;16676;51.202;6.774;2024-03-02T17:16:03;20.00;59.40
29775;DHT22;16676;51.202;6.774;2024-03-02T17:20:06;20.00;59.50
29775;DHT22;16676;51.202;6.774;2024-03-02T17:24:09;19.90;59.60
29775;DHT22;16676;51.202;6.774;2024-03-02T17:28:19;19.90;59.60
29775;DHT22;16676;51.202;6.774;2024-03-02T17:32:22;19.90;59.60
29775;DHT22;16676;51.202;6.774;2024-03-02T17:36:24;19.90;59.40
29775;DHT22;16676;51.202;6.774;2024-03-02T17:40:26;19.90;59.40
29775;DHT22;16676;51.202;6.774;2024-03-02T17:44:28;19.90;59.60
29775;DHT22;16676;51.202;6.774;2024-03-02T17:48:31;19.90;59.60
29775;DHT22;16676;51.202;6.774;2024-03-02T17:52:34;19.80;59.50
29775;DHT22;16676;51.202;6.774;2024-03-02T17:56:35;19.80;59.60
29775;DHT22;16676;51.202;6.774;2024-03-02T18:00:37;19.80;59.60
29775;DHT22;16676;51.202;6.774;2024-03-02T18:04:41;19.80;59.80
29775;DHT22;16676;51.202;6.774;2024-03-02T18:08:43;19.80;59.90
29775;DHT22;16676;51.202;6.774;2024-03-02T18:12:45;19.80;60.50
29775;DHT22;16676;51.202;6.774;2024-03-02T18:16:47;19.80;59.90
29775;DHT22;16676;51.202;6.774;2024-03-02T18:20:50;19.80;60.30
29775;DHT22;16676;51.202;6.774;2024-03-02T18:24:52;19.80;60.00
29775;DHT22;16676;51.202;6.774;2024-03-02T18:28:54;19.70;60.10
29775;DHT22;16676;51.202;6.774;2024-03-02T18:32:56;19.70;60.10
29775;DHT22;16676;51.202;6.774;2024-03-02T18:36:59;19.70;60.20
29775;DHT22;16676;51.202;6.774;2024-03-02T18:41:01;19.70;60.00
29775;DHT22;16676;51.202;6.774;2024-03-02T18:45:04;19.70;60.20
29775;DHT22;16676;51.202;6.774;2024-03-02T18:49:06;19.70;59.90
29775;DHT22;16676;51.202;6.774;2024-03-02T18:53:09;19.70;60.10
29775;DHT22;16676;51.202;6.774;2024-03-02T18:57:11;19.70;60.00
29775;DHT22;16676;51.202;6.774;2024-03-02T19:01:14;19.70;59.50
29775;DHT22;16676;51.202;6.774;2024-03-02T19:05:16;19.60;60.00
29775;DHT22;16676;51.202;6.774;2024-03-02T19:09:19;19.60;59.60
29775;DHT22;16676;51.202;6.774;2024-03-02T19:13:21;19.60;59.60
29775;DHT22;16676;51.202;6.774;2024-03-02T19:17:24;19.60;59.60
29775;DHT22;16676;51.202;6.774;2024-03-02T19:21:26;19.60;59.30
29775;DHT22;16676;51.202;6.774;2024-03-02T19:25:29;19.60;59.10
29775;DHT22;16676;51.202;6.774;2024-03-02T19:29:31;19.50;60.00
29775;DHT22;16676;51.202;6.774;2024-03-02T19:33:33;19.50;59.50
29775;DHT22;16676;51.202;6.774;2024-03-02T19:37:35;19.50;59.60
29775;DHT22;16676;51.202;6.774;2024-03-02T19:41:38;19.50;59.80
29775;DHT22;16676;51.202;6.774;2024-03-02T19:45:40;19.50;59.80
29775;DHT22;16676;51.202;6.774;2024-03-02T19:49:44;19.50;59.90
29775;DHT22;16676;51.202;6.774;2024-03-02T19:53:46;19.50;60.30
29775;DHT22;16676;51.202;6.774;2024-03-02T19:57:49;19.40;60.00
29775;DHT22;16676;51.202;6.774;2024-03-02T20:01:51;19.40;59.90
29775;DHT22;16676;51.202;6.774;2024-03-02T20:05:53;19.40;60.10
29775;DHT22;16676;51.202;6.774;2024-03-02T20:09:55;19.40;59.90
29775;DHT22;16676;51.202;6.774;2024-03-02T20:13:58;19.40;60.10
29775;DHT22;16676;51.202;6.774;2024-03-02T20:18:00;19.40;60.00
29775;DHT22;16676;51.202;6.774;2024-03-02T20:22:02;19.40;60.30
29775;DHT22;16676;51.202;6.774;2024-03-02T20:26:04;19.40;60.10
29775;DHT22;16676;51.202;6.774;2024-03-02T20:30:09;19.40;60.30
29775;DHT22;16676;51.202;6.774;2024-03-02T20:34:11;19.40;60.50
29775;DHT22;16676;51.202;6.774;2024-03-02T20:38:15;19.30;62.20
29775;DHT22;16676;51.202;6.774;2024-03-02T20:42:17;19.30;61.80
29775;DHT22;16676;51.202;6.774;2024-03-02T20:46:20;19.40;63.20
29775;DHT22;16676;51.202;6.774;2024-03-02T20:50:22;19.30;63.60
29775;DHT22;16676;51.202;6.774;2024-03-02T20:54:24;19.30;63.90
29775;DHT22;16676;51.202;6.774;2024-03-02T20:58:26;19.30;64.20
29775;DHT22;16676;51.202;6.774;2024-03-02T21:02:29;19.20;65.70
29775;DHT22;16676;51.202;6.774;2024-03-02T21:06:31;19.30;64.50
29775;DHT22;16676;51.202;6.774;2024-03-02T21:10:33;19.30;64.20
29775;DHT22;16676;51.202;6.774;2024-03-02T21:14:35;19.20;64.40
29775;DHT22;16676;51.202;6.774;2024-03-02T21:18:41;19.20;65.10
29775;DHT22;16676;51.202;6.774;2024-03-02T21:22:43;19.20;65.10
29775;DHT22;16676;51.202;6.774;2024-03-02T21:26:48;19.20;65.10
29775;DHT22;16676;51.202;6.774;2024-03-02T21:30:50;19.20;65.30
29775;DHT22;16676;51.202;6.774;2024-03-02T21:34:53;19.10;66.00
29775;DHT22;16676;51.202;6.774;2024-03-02T21:38:56;19.10;65.50
29775;DHT22;16676;51.202;6.774;2024-03-02T21:42:58;19.10;65.90
29775;DHT22;16676;51.202;6.774;2024-03-02T21:47:00;19.10;65.80
29775;DHT22;16676;51.202;6.774;2024-03-02T21:51:03;19.10;66.20
29775;DHT22;16676;51.202;6.774;2024-03-02T21:55:06;19.10;66.20
29775;DHT22;16676;51.202;6.774;2024-03-02T21:59:09;19.10;66.30
29775;DHT22;16676;51.202;6.774;2024-03-02T22:03:11;19.10;66.80
29775;DHT22;16676;51.202;6.774;2024-03-02T22:07:15;19.10;66.50
29775;DHT22;16676;51.202;6.774;2024-03-02T22:11:17;19.10;66.50
29775;DHT22;16676;51.202;6.774;2024-03-02T22:15:19;19.00;66.80
29775;DHT22;16676;51.202;6.774;2024-03-02T22:19:21;19.00;66.40
29775;DHT22;16676;51.202;6.774;2024-03-02T22:23:24;19.00;67.10
29775;DHT22;16676;51.202;6.774;2024-03-02T22:27:26;19.00;66.60
29775;DHT22;16676;51.202;6.774;2024-03-02T22:31:28;19.00;66.90
29775;DHT22;16676;51.202;6.774;2024-03-02T22:35:31;19.00;66.20
29775;DHT22;16676;51.202;6.774;2024-03-02T22:39:34;19.00;66.60
29775;DHT22;16676;51.202;6.774;2024-03-02T22:43:36;18.90;66.70
29775;DHT22;16676;51.202;6.774;2024-03-02T22:47:38;18.90;66.40
29775;DHT22;16676;51.202;6.774;2024-03-02T22:51:40;18.90;66.40
29775;DHT22;16676;51.202;6.774;2024-03-02T22:55:43;18.90;67.00
29775;DHT22;16676;51.202;6.774;2024-03-02T22:59:47;18.90;66.70
29775;DHT22;16676;51.202;6.774;2024-03-02T23:03:50;18.90;66.80
29775;DHT22;16676;51.202;6.774;2024-03-02T23:07:52;18.90;67.00
29775;DHT22;16676;51.202;6.774;2024-03-02T23:11:55;18.80;67.00
29775;DHT22;16676;51.202;6.774;2024-03-02T23:15:57;18.80;66.70
29775;DHT22;16676;51.202;6.774;2024-03-02T23:19:59;18.80;67.00
29775;DHT22;16676;51.202;6.774;2024-03-02T23:24:01;18.80;67.10
29775;DHT22;16676;51.202;6.774;2024-03-02T23:28:05;18.80;67.00
29775;DHT22;16676;51.202;6.774;2024-03-02T23:32:07;18.80;67.20
29775;DHT22;16676;51.202;6.774;2024-03-02T23:36:09;18.80;67.60
29775;DHT22;16676;51.202;6.774;2024-03-02T23:40:12;18.80;67.30
29775;DHT22;16676;51.202;6.774;2024-03-02T23:44:37;18.80;67.40
29775;DHT22;16676;51.202;6.774;2024-03-02T23:48:39;18.80;67.90
29775;DHT22;16676;51.202;6.774;2024-03-02T23:52:41;18.80;68.00
29775;DHT22;16676;51.202;6.774;2024-03-02T23:56:44;18.80;67.80
